Time;durP1;ratioP1;P1;durP2;ratioP2;P2;SDS_P1;SDS_P2;PMS_P1;PMS_P2;Temp;Humidity;BMP_temperature;BMP_pressure;BME280_temperature;BME280_humidity;BME280_pressure;Samples;Min_cycle;Max_cycle;Signal;HPM_P1;HPM_P2
2023/07/15 00:01:43;;;;;;;4.63;2.20;;;19.30;99.90;;;;;;4989722;28;20458;-68
2023/07/15 00:04:13;;;;;;;2.47;2.27;;;19.30;99.90;;;;;;4990367;28;21126;-68
2023/07/15 00:06:40;;;;;;;6.03;2.60;;;19.40;99.90;;;;;;4990413;28;21055;-69
2023/07/15 00:09:09;;;;;;;2.80;2.60;;;19.50;99.90;;;;;;4991315;28;20894;-68
2023/07/15 00:11:39;;;;;;;3.10;2.13;;;19.50;99.90;;;;;;4991672;28;20497;-68
2023/07/15 00:14:15;;;;;;;2.03;1.83;;;19.60;99.90;;;;;;4991944;28;20957;-68
2023/07/15 00:16:42;;;;;;;2.27;2.07;;;19.60;99.90;;;;;;4975940;28;20482;-68
2023/07/15 00:19:09;;;;;;;2.93;2.50;;;19.60;99.90;;;;;;4977000;28;20499;-68
2023/07/15 00:21:36;;;;;;;2.50;2.30;;;19.70;99.90;;;;;;4972290;28;20832;-68
2023/07/15 00:24:03;;;;;;;3.00;2.43;;;19.70;99.90;;;;;;4976722;28;20468;-69
2023/07/15 00:26:34;;;;;;;2.37;2.17;;;19.80;99.90;;;;;;4972289;28;20875;-68
2023/07/15 00:29:01;;;;;;;2.50;2.03;;;19.90;99.90;;;;;;4972853;28;20611;-69
2023/07/15 00:31:29;;;;;;;2.97;2.37;;;19.90;99.90;;;;;;4972109;28;20490;-69
2023/07/15 00:33:56;;;;;;;2.30;2.10;;;20.00;99.90;;;;;;4972646;28;20522;-69
2023/07/15 00:36:23;;;;;;;2.20;2.00;;;20.00;99.90;;;;;;4972117;28;20467;-68
2023/07/15 00:38:50;;;;;;;2.30;2.10;;;20.10;99.90;;;;;;4972376;28;20959;-69
2023/07/15 00:41:19;;;;;;;2.67;2.33;;;20.10;99.90;;;;;;4972718;28;20462;-69
2023/07/15 00:43:56;;;;;;;2.80;2.40;;;20.10;99.90;;;;;;4984255;28;20958;-70
2023/07/15 00:46:46;;;;;;;2.43;2.23;;;20.10;99.90;;;;;;4991355;28;20458;-69
2023/07/15 00:49:16;;;;;;;3.00;2.63;;;20.20;99.90;;;;;;4992129;28;20531;-69
2023/07/15 00:51:45;;;;;;;2.60;2.20;;;20.20;99.90;;;;;;4991574;28;20862;-70
2023/07/15 00:54:14;;;;;;;2.40;2.20;;;20.30;99.90;;;;;;4991196;28;20463;-69
2023/07/15 00:56:44;;;;;;;3.10;2.40;;;20.30;99.90;;;;;;4991408;28;20906;-69
2023/07/15 00:59:13;;;;;;;2.60;2.40;;;20.40;99.90;;;;;;4991470;28;20470;-68
2023/07/15 01:01:42;;;;;;;2.50;2.30;;;20.40;99.90;;;;;;4991095;28;20485;-68
2023/07/15 01:04:09;;;;;;;2.60;2.40;;;20.40;99.90;;;;;;4991079;28;20476;-68
2023/07/15 01:06:36;;;;;;;2.77;2.07;;;20.50;99.90;;;;;;4990821;28;20483;-69
2023/07/15 01:09:07;;;;;;;3.27;2.63;;;20.50;99.90;;;;;;4991140;28;20455;-68
2023/07/15 01:11:33;;;;;;;2.40;2.20;;;20.50;99.90;;;;;;4990857;28;21076;-68
2023/07/15 01:14:00;;;;;;;2.87;2.40;;;20.50;99.90;;;;;;4990917;28;20469;-69
2023/07/15 01:16:28;;;;;;;2.47;2.27;;;20.50;99.90;;;;;;4990438;28;20462;-68
2023/07/15 01:18:56;;;;;;;2.30;2.10;;;20.60;99.90;;;;;;4991230;28;20812;-68
2023/07/15 01:21:23;;;;;;;3.37;2.57;;;20.60;99.90;;;;;;4990863;28;20459;-68
2023/07/15 01:23:51;;;;;;;3.20;2.40;;;20.60;99.90;;;;;;4990703;28;20855;-69
2023/07/15 01:26:17;;;;;;;4.33;2.30;;;20.60;99.90;;;;;;4990744;28;20473;-68
2023/07/15 01:28:44;;;;;;;2.60;2.13;;;20.60;99.90;;;;;;4990733;28;20568;-68
2023/07/15 01:31:11;;;;;;;3.13;2.80;;;20.50;99.90;;;;;;5060477;23;20492;-91
2023/07/15 01:33:40;;;;;;;3.53;2.57;;;20.50;99.90;;;;;;5062960;28;20475;-92
2023/07/15 01:38:37;;;;;;;2.67;2.17;;;20.50;99.90;;;;;;5008666;28;21004;-71
2023/07/15 01:41:05;;;;;;;3.10;2.50;;;20.40;99.90;;;;;;5010493;28;20465;-72
2023/07/15 01:43:32;;;;;;;2.43;2.10;;;20.40;99.90;;;;;;5010392;28;20461;-72
2023/07/15 01:45:58;;;;;;;2.90;2.60;;;20.50;99.90;;;;;;5009902;28;20465;-72
2023/07/15 01:48:26;;;;;;;3.70;2.17;;;20.40;99.90;;;;;;5009971;28;20484;-71
2023/07/15 01:50:53;;;;;;;2.27;2.07;;;20.50;99.90;;;;;;5010392;28;20496;-72
2023/07/15 01:53:19;;;;;;;2.70;2.50;;;20.40;99.90;;;;;;5010117;28;20488;-72
2023/07/15 01:55:46;;;;;;;2.83;2.53;;;20.40;99.90;;;;;;5009820;28;20466;-72
2023/07/15 01:58:14;;;;;;;2.43;2.23;;;20.50;99.90;;;;;;5010151;28;20843;-71
2023/07/15 02:00:41;;;;;;;2.70;2.37;;;20.40;99.90;;;;;;5010189;28;20461;-72
2023/07/15 02:03:08;;;;;;;2.90;2.70;;;20.50;99.90;;;;;;5010052;28;20462;-71
2023/07/15 02:05:35;;;;;;;2.40;2.20;;;20.40;99.90;;;;;;5012594;28;20463;-72
2023/07/15 02:08:02;;;;;;;5.20;2.63;;;20.50;99.90;;;;;;5013754;28;20479;-72
2023/07/15 02:10:31;;;;;;;2.37;2.17;;;20.50;99.90;;;;;;5013863;28;20468;-72
2023/07/15 02:12:57;;;;;;;3.43;2.40;;;20.40;99.90;;;;;;5013890;28;20655;-72
2023/07/15 02:15:25;;;;;;;2.43;2.23;;;20.40;99.90;;;;;;5013219;28;20957;-72
2023/07/15 02:17:52;;;;;;;2.83;2.53;;;20.30;99.90;;;;;;5005846;28;20901;-71
2023/07/15 02:20:21;;;;;;;2.33;2.03;;;20.40;99.90;;;;;;5013602;28;20464;-72
2023/07/15 02:22:47;;;;;;;3.03;2.10;;;20.40;99.90;;;;;;5013630;28;20535;-72
2023/07/15 02:25:14;;;;;;;2.30;2.10;;;20.40;99.90;;;;;;5013028;28;20469;-71
2023/07/15 02:27:41;;;;;;;2.33;2.13;;;20.40;99.90;;;;;;5013565;28;20487;-71
2023/07/15 02:30:09;;;;;;;2.60;2.40;;;20.40;99.90;;;;;;5013433;28;20465;-72
2023/07/15 02:32:39;;;;;;;2.33;2.13;;;20.40;99.90;;;;;;5013422;28;20484;-72
2023/07/15 02:35:10;;;;;;;2.67;2.47;;;20.40;99.90;;;;;;5012766;28;20470;-71
2023/07/15 02:37:37;;;;;;;2.27;2.07;;;20.30;99.90;;;;;;5013479;28;20555;-72
2023/07/15 02:40:13;;;;;;;3.37;3.07;;;20.30;99.90;;;;;;5013180;28;20468;-71
2023/07/15 02:42:40;;;;;;;2.23;2.03;;;20.30;99.90;;;;;;5013505;28;20461;-72
2023/07/15 02:45:09;;;;;;;2.63;2.43;;;20.30;99.90;;;;;;5012649;28;20819;-72
2023/07/15 02:47:39;;;;;;;2.87;2.20;;;20.30;99.90;;;;;;5013099;28;21118;-72
2023/07/15 02:50:08;;;;;;;2.33;1.77;;;20.30;99.90;;;;;;5013014;28;20461;-71
2023/07/15 02:52:37;;;;;;;2.97;2.57;;;20.30;99.90;;;;;;5013019;28;20870;-72
2023/07/15 02:55:05;;;;;;;2.70;2.33;;;20.30;99.90;;;;;;5012448;28;20461;-72
2023/07/15 02:57:32;;;;;;;2.37;2.17;;;20.30;99.90;;;;;;5012915;28;20521;-71
2023/07/15 03:00:00;;;;;;;2.90;2.67;;;20.30;99.90;;;;;;5012964;28;20461;-72
2023/07/15 03:02:29;;;;;;;2.47;2.10;;;20.20;99.90;;;;;;5013162;28;20462;-72
2023/07/15 03:04:57;;;;;;;2.97;2.10;;;20.20;99.90;;;;;;5012149;28;20495;-72
2023/07/15 03:07:23;;;;;;;2.13;2.03;;;20.10;99.90;;;;;;5012730;28;20485;-72
2023/07/15 03:09:50;;;;;;;3.83;2.30;;;20.10;99.90;;;;;;5012644;28;20473;-72
2023/07/15 03:12:17;;;;;;;3.37;2.93;;;20.10;99.90;;;;;;5012733;28;20496;-72
2023/07/15 03:14:44;;;;;;;3.00;2.30;;;20.20;99.90;;;;;;5012083;28;20849;-72
2023/07/15 03:17:11;;;;;;;5.00;2.70;;;20.20;99.90;;;;;;5012418;28;20984;-72
2023/07/15 03:19:38;;;;;;;2.60;2.40;;;20.30;99.90;;;;;;5013273;28;20606;-72
2023/07/15 03:22:06;;;;;;;2.37;2.17;;;20.30;99.90;;;;;;5012605;28;20468;-72
2023/07/15 03:24:35;;;;;;;2.33;2.13;;;20.40;99.90;;;;;;5012224;28;20469;-72
2023/07/15 03:27:02;;;;;;;3.20;2.90;;;20.50;99.90;;;;;;5012335;28;20477;-72
2023/07/15 03:29:29;;;;;;;2.70;2.50;;;20.50;99.90;;;;;;5012463;28;20465;-72
2023/07/15 03:31:56;;;;;;;3.50;2.83;;;20.60;99.90;;;;;;5012309;28;20577;-72
2023/07/15 03:34:23;;;;;;;2.53;2.33;;;20.60;99.90;;;;;;5011747;28;20473;-72
2023/07/15 03:36:49;;;;;;;2.53;2.33;;;20.70;99.90;;;;;;5012127;28;20500;-72
2023/07/15 03:39:19;;;;;;;2.53;2.30;;;20.70;99.90;;;;;;5012039;28;21011;-73
2023/07/15 03:41:46;;;;;;;3.80;2.90;;;20.70;99.90;;;;;;5012359;28;20500;-72
2023/07/15 03:44:13;;;;;;;2.93;2.57;;;20.70;99.90;;;;;;5012218;28;20457;-72
2023/07/15 03:46:39;;;;;;;2.30;2.10;;;20.70;99.90;;;;;;5012041;28;20834;-72
2023/07/15 03:49:07;;;;;;;2.57;2.30;;;20.80;99.90;;;;;;5012055;28;20469;-72
2023/07/15 03:51:35;;;;;;;2.60;2.40;;;20.80;99.90;;;;;;5012177;28;20466;-72
2023/07/15 03:54:02;;;;;;;2.40;2.20;;;20.80;99.90;;;;;;5011668;28;20528;-72
2023/07/15 03:56:30;;;;;;;2.80;2.60;;;20.80;99.90;;;;;;5011535;28;21002;-72
2023/07/15 03:58:57;;;;;;;3.90;2.73;;;20.80;99.90;;;;;;5012103;28;20608;-72
2023/07/15 04:01:24;;;;;;;3.17;2.50;;;20.80;99.90;;;;;;5018291;28;20461;-72
2023/07/15 04:03:51;;;;;;;2.60;2.40;;;20.80;99.90;;;;;;5031137;28;20458;-72
2023/07/15 04:06:18;;;;;;;2.73;2.43;;;20.70;99.90;;;;;;5030976;28;20467;-72
2023/07/15 04:08:44;;;;;;;2.33;2.13;;;20.70;99.90;;;;;;5031634;28;20472;-72
2023/07/15 04:11:11;;;;;;;2.17;1.97;;;20.70;99.90;;;;;;5031386;28;20460;-72
2023/07/15 04:13:39;;;;;;;2.37;2.17;;;20.60;99.90;;;;;;5031125;28;20826;-72
2023/07/15 04:16:06;;;;;;;2.47;2.10;;;20.50;99.90;;;;;;5030927;28;20840;-72
2023/07/15 04:18:33;;;;;;;2.50;2.30;;;20.50;99.90;;;;;;5031159;28;20488;-72
2023/07/15 04:21:00;;;;;;;3.37;2.87;;;20.40;99.90;;;;;;5023830;28;20978;-72
2023/07/15 04:23:26;;;;;;;2.80;2.30;;;20.30;99.90;;;;;;5011435;28;20524;-72
2023/07/15 04:25:53;;;;;;;2.27;2.03;;;20.20;99.90;;;;;;5010800;28;20846;-72
2023/07/15 04:28:21;;;;;;;2.47;2.27;;;20.20;99.90;;;;;;5024749;28;20566;-72
2023/07/15 04:30:49;;;;;;;3.10;2.77;;;20.20;99.90;;;;;;5031077;28;20470;-72
2023/07/15 04:33:16;;;;;;;3.27;2.97;;;20.20;99.90;;;;;;5030728;28;20486;-72
2023/07/15 04:35:42;;;;;;;12.10;2.87;;;20.20;99.90;;;;;;5030925;28;20472;-73
2023/07/15 04:38:10;;;;;;;2.97;2.60;;;20.30;99.90;;;;;;5018723;28;20493;-72
2023/07/15 04:40:37;;;;;;;2.83;2.63;;;20.30;99.90;;;;;;5011399;28;20462;-72
2023/07/15 04:43:03;;;;;;;2.57;2.37;;;20.30;99.90;;;;;;5010858;28;20454;-72
2023/07/15 04:45:32;;;;;;;2.60;2.40;;;20.30;99.90;;;;;;5010660;28;20462;-72
2023/07/15 04:48:00;;;;;;;2.57;2.20;;;20.40;99.90;;;;;;5010685;28;20485;-72
2023/07/15 04:50:27;;;;;;;2.47;2.23;;;20.50;99.90;;;;;;5025703;28;20464;-72
2023/07/15 04:52:54;;;;;;;2.60;2.10;;;20.50;99.90;;;;;;5020699;28;20489;-72
2023/07/15 04:55:20;;;;;;;2.50;2.30;;;20.50;99.90;;;;;;5010458;28;20473;-72
2023/07/15 04:57:47;;;;;;;2.53;2.33;;;20.50;99.90;;;;;;5027889;28;20484;-72
2023/07/15 05:00:16;;;;;;;3.10;2.80;;;20.50;99.90;;;;;;5030601;28;20991;-72
2023/07/15 05:02:43;;;;;;;2.63;2.43;;;20.40;99.90;;;;;;5014295;28;20520;-72
2023/07/15 05:05:12;;;;;;;3.00;2.50;;;20.40;99.90;;;;;;5026416;28;20470;-72
2023/07/15 05:07:39;;;;;;;2.67;2.47;;;20.40;99.90;;;;;;5027033;28;20481;-72
2023/07/15 05:10:06;;;;;;;3.27;2.97;;;20.40;99.90;;;;;;5030596;28;20540;-72
2023/07/15 05:12:33;;;;;;;2.50;2.30;;;20.40;99.90;;;;;;5030438;28;20482;-72
2023/07/15 05:15:00;;;;;;;3.63;2.57;;;20.40;99.90;;;;;;5029978;28;20989;-72
2023/07/15 05:17:27;;;;;;;3.00;2.70;;;20.50;99.90;;;;;;5030884;28;20563;-72
2023/07/15 05:19:54;;;;;;;3.67;2.97;;;20.50;99.90;;;;;;5030077;28;20461;-72
2023/07/15 05:22:22;;;;;;;2.43;2.23;;;20.50;99.90;;;;;;5030302;28;20488;-72
2023/07/15 05:24:49;;;;;;;3.30;2.40;;;20.60;99.90;;;;;;5029791;28;20458;-72
2023/07/15 05:27:16;;;;;;;3.70;2.60;;;20.60;99.90;;;;;;5030193;28;20492;-72
2023/07/15 05:29:43;;;;;;;2.30;2.10;;;20.60;99.90;;;;;;5030305;28;20464;-71
2023/07/15 05:32:10;;;;;;;2.73;2.53;;;20.70;99.90;;;;;;5030121;28;20470;-72
2023/07/15 05:34:36;;;;;;;3.33;2.63;;;20.80;99.90;;;;;;5027886;28;20986;-72
2023/07/15 05:37:03;;;;;;;2.50;2.30;;;20.80;99.90;;;;;;5029151;28;20490;-72
2023/07/15 05:39:32;;;;;;;3.00;2.70;;;20.80;99.90;;;;;;5031035;28;20470;-72
2023/07/15 05:41:59;;;;;;;2.73;2.40;;;20.90;99.90;;;;;;5015584;28;20516;-72
2023/07/15 05:44:26;;;;;;;3.10;2.80;;;21.00;99.90;;;;;;5013533;28;20488;-71
2023/07/15 05:46:52;;;;;;;2.83;2.63;;;21.00;99.90;;;;;;5013795;28;20491;-72
2023/07/15 05:49:19;;;;;;;2.90;2.60;;;21.10;99.90;;;;;;5013333;28;20465;-71
2023/07/15 05:51:46;;;;;;;3.10;2.70;;;21.20;99.90;;;;;;5014214;28;20200;-70
2023/07/15 05:54:12;;;;;;;2.57;2.30;;;21.30;99.90;;;;;;5008986;28;20507;-71
2023/07/15 05:56:40;;;;;;;3.00;2.50;;;21.30;99.90;;;;;;5033497;28;20484;-71
2023/07/15 05:59:07;;;;;;;3.83;2.30;;;21.40;99.90;;;;;;5033319;28;20837;-71
2023/07/15 06:01:34;;;;;;;2.23;2.13;;;21.50;99.90;;;;;;5033381;28;20466;-71
2023/07/15 06:04:01;;;;;;;2.70;2.13;;;21.70;99.90;;;;;;5032900;28;20849;-71
2023/07/15 06:06:27;;;;;;;4.50;2.37;;;21.80;99.90;;;;;;5033151;28;20470;-71
2023/07/15 06:08:54;;;;;;;2.90;2.30;;;22.00;99.90;;;;;;5033230;28;20462;-71
2023/07/15 06:11:21;;;;;;;2.53;2.33;;;22.10;99.90;;;;;;5033251;28;20476;-71
2023/07/15 06:13:49;;;;;;;3.63;1.93;;;22.20;99.90;;;;;;5033163;28;20490;-71
2023/07/15 06:16:16;;;;;;;2.37;2.00;;;22.30;99.90;;;;;;5005149;28;20849;-71
2023/07/15 06:18:42;;;;;;;3.50;2.23;;;22.50;99.90;;;;;;5013629;28;20462;-71
2023/07/15 06:21:09;;;;;;;2.63;2.10;;;22.60;99.90;;;;;;5013169;28;20467;-71
2023/07/15 06:23:36;;;;;;;2.27;2.07;;;22.80;99.90;;;;;;5013475;28;20954;-71
2023/07/15 06:26:03;;;;;;;2.27;2.07;;;22.90;99.90;;;;;;5012773;28;20534;-71
2023/07/15 06:28:30;;;;;;;2.17;1.97;;;23.10;99.90;;;;;;5013214;28;20495;-71
2023/07/15 06:31:06;;;;;;;2.63;2.20;;;23.20;99.90;;;;;;5012959;28;20465;-71
2023/07/15 06:33:33;;;;;;;2.10;1.90;;;23.30;99.90;;;;;;5021643;28;20484;-71
2023/07/15 06:36:00;;;;;;;3.77;2.33;;;23.40;99.90;;;;;;5012589;28;20966;-71
2023/07/15 06:38:27;;;;;;;2.53;2.20;;;23.50;99.90;;;;;;5013673;28;20490;-71
2023/07/15 06:40:54;;;;;;;3.30;2.60;;;23.50;99.90;;;;;;5012882;28;20461;-71
2023/07/15 06:43:21;;;;;;;1.90;1.70;;;23.60;99.90;;;;;;5025456;28;20841;-71
2023/07/15 06:45:48;;;;;;;3.40;2.40;;;23.70;99.90;;;;;;5024908;28;20472;-71
2023/07/15 06:48:17;;;;;;;2.10;1.90;;;23.80;99.90;;;;;;5013147;28;20490;-71
2023/07/15 06:50:44;;;;;;;2.23;2.03;;;23.90;99.90;;;;;;5013027;28;20464;-71
2023/07/15 06:53:10;;;;;;;2.67;2.00;;;24.00;99.90;;;;;;5012774;28;20490;-71
2023/07/15 06:55:37;;;;;;;2.13;2.03;;;24.10;99.90;;;;;;5012700;28;20465;-69
2023/07/15 06:58:06;;;;;;;2.53;2.33;;;24.20;99.90;;;;;;5012779;28;20858;-70
2023/07/15 07:00:33;;;;;;;2.27;2.07;;;24.30;99.90;;;;;;5013078;28;20494;-69
2023/07/15 07:02:59;;;;;;;2.57;2.37;;;24.40;99.90;;;;;;5012779;28;20483;-71
2023/07/15 07:05:28;;;;;;;1.90;1.80;;;24.50;99.30;;;;;;5012733;28;20468;-70
2023/07/15 07:07:55;;;;;;;2.57;2.37;;;24.60;99.70;;;;;;5013746;28;20527;-70
2023/07/15 07:10:22;;;;;;;2.53;2.33;;;24.70;99.90;;;;;;5012762;28;20462;-70
2023/07/15 07:12:49;;;;;;;2.33;2.13;;;24.90;99.70;;;;;;5020615;28;20848;-70
2023/07/15 07:15:16;;;;;;;2.30;2.10;;;25.00;99.90;;;;;;5021077;28;20464;-70
2023/07/15 07:17:42;;;;;;;2.67;2.47;;;25.10;99.90;;;;;;5012643;28;20998;-71
2023/07/15 07:20:10;;;;;;;2.00;1.80;;;25.10;99.90;;;;;;5014375;28;20472;-70
2023/07/15 07:22:38;;;;;;;2.20;2.00;;;25.20;99.90;;;;;;5033155;28;20470;-70
2023/07/15 07:25:05;;;;;;;2.50;2.30;;;25.40;99.90;;;;;;5031915;28;20462;-70
2023/07/15 07:27:32;;;;;;;2.20;1.87;;;25.50;99.80;;;;;;5024460;28;20581;-70
2023/07/15 07:29:59;;;;;;;2.40;2.20;;;25.50;99.90;;;;;;5032117;28;20873;-71
2023/07/15 07:32:26;;;;;;;3.23;2.20;;;25.60;99.90;;;;;;5021094;28;20468;-70
2023/07/15 07:37:28;;;;;;;3.30;2.30;;;25.70;99.10;;;;;;5039399;23;20500;-70
2023/07/15 07:39:56;;;;;;;2.47;1.90;;;25.80;99.50;;;;;;4992679;28;20468;-69
2023/07/15 07:42:23;;;;;;;2.73;2.40;;;25.90;99.40;;;;;;4992769;28;20458;-69
2023/07/15 07:44:50;;;;;;;2.70;2.30;;;26.00;98.60;;;;;;4991873;28;21188;-69
2023/07/15 07:47:16;;;;;;;2.37;2.17;;;26.30;98.10;;;;;;4992327;28;20481;-69
2023/07/15 07:49:43;;;;;;;2.47;2.23;;;26.60;97.80;;;;;;4992296;28;20461;-69
2023/07/15 07:52:10;;;;;;;2.53;2.20;;;26.80;97.40;;;;;;4992274;28;21013;-69
2023/07/15 07:54:36;;;;;;;2.10;1.93;;;26.90;97.20;;;;;;4991933;28;20888;-69
2023/07/15 07:57:05;;;;;;;3.00;2.33;;;27.10;97.40;;;;;;4992116;28;20826;-69
2023/07/15 07:59:32;;;;;;;2.00;1.83;;;27.20;97.40;;;;;;4992400;28;20467;-69
2023/07/15 08:01:58;;;;;;;2.30;2.10;;;27.30;98.70;;;;;;4991528;28;21215;-69
2023/07/15 08:04:25;;;;;;;2.43;2.23;;;27.40;99.00;;;;;;4991688;28;20466;-69
2023/07/15 08:06:52;;;;;;;2.40;2.20;;;27.50;99.20;;;;;;4992361;28;20479;-69
2023/07/15 08:09:19;;;;;;;3.33;2.33;;;27.60;96.40;;;;;;4991933;28;20469;-69
2023/07/15 08:11:45;;;;;;;2.50;2.30;;;27.70;97.20;;;;;;4994796;28;20550;-69
2023/07/15 08:14:13;;;;;;;2.93;2.00;;;27.70;97.30;;;;;;4992801;28;20489;-69
2023/07/15 08:16:40;;;;;;;3.30;2.00;;;27.70;97.90;;;;;;5010714;28;20493;-69
2023/07/15 08:19:08;;;;;;;2.93;2.43;;;27.80;98.30;;;;;;5010182;28;20472;-70
2023/07/15 08:21:35;;;;;;;2.20;2.00;;;27.90;97.70;;;;;;5011124;28;20469;-69
2023/07/15 08:24:02;;;;;;;2.57;2.37;;;28.00;97.70;;;;;;5010203;28;20493;-68
2023/07/15 08:26:29;;;;;;;2.27;2.07;;;28.00;96.60;;;;;;5010660;28;20559;-69
2023/07/15 08:28:58;;;;;;;2.30;2.10;;;28.00;96.90;;;;;;5010387;28;20976;-69
2023/07/15 08:31:26;;;;;;;2.50;2.20;;;28.00;96.90;;;;;;5010564;28;20523;-69
2023/07/15 08:33:53;;;;;;;2.30;2.10;;;27.90;95.20;;;;;;5010623;28;20489;-69
2023/07/15 08:36:19;;;;;;;2.73;2.20;;;28.00;95.80;;;;;;4990802;28;20509;-69
2023/07/15 08:38:46;;;;;;;2.40;2.20;;;28.00;96.50;;;;;;4991284;28;20873;-69
2023/07/15 08:41:13;;;;;;;2.33;2.10;;;28.00;95.50;;;;;;4990476;28;20477;-69
2023/07/15 08:43:43;;;;;;;2.60;2.40;;;28.00;95.70;;;;;;4990813;28;20470;-69
2023/07/15 08:46:18;;;;;;;3.20;2.87;;;28.00;96.30;;;;;;4990385;28;20466;-69
2023/07/15 08:48:46;;;;;;;2.87;2.40;;;28.10;96.60;;;;;;4991166;28;20477;-69
2023/07/15 08:51:13;;;;;;;2.40;2.17;;;28.10;95.90;;;;;;4990440;28;20462;-69
2023/07/15 08:53:43;;;;;;;2.87;2.20;;;28.20;96.10;;;;;;4990649;28;20482;-69
2023/07/15 08:56:11;;;;;;;2.63;2.43;;;28.50;94.70;;;;;;4990141;28;20477;-70
2023/07/15 08:58:39;;;;;;;2.40;2.20;;;28.70;95.40;;;;;;4990763;28;20955;-69
2023/07/15 09:01:05;;;;;;;2.43;2.23;;;28.90;95.20;;;;;;4991152;28;20466;-69
2023/07/15 09:03:32;;;;;;;2.80;2.57;;;28.90;95.60;;;;;;4991156;28;20849;-70
2023/07/15 09:06:01;;;;;;;2.37;2.17;;;29.00;96.00;;;;;;4990656;28;20473;-70
2023/07/15 09:08:28;;;;;;;2.20;2.00;;;29.00;96.70;;;;;;4990310;28;20478;-70
2023/07/15 09:10:56;;;;;;;2.47;2.27;;;29.20;94.00;;;;;;4991346;28;20466;-69
2023/07/15 09:13:24;;;;;;;2.47;2.23;;;29.40;94.50;;;;;;4992864;28;20469;-70
2023/07/15 09:15:51;;;;;;;2.30;2.10;;;29.50;94.70;;;;;;4990249;28;20501;-70
2023/07/15 09:18:18;;;;;;;2.60;2.23;;;29.60;95.10;;;;;;4989806;28;20485;-73
2023/07/15 09:20:45;;;;;;;2.70;2.43;;;29.60;94.60;;;;;;4988506;28;20459;-69
2023/07/15 09:23:13;;;;;;;4.50;2.33;;;29.70;96.50;;;;;;4988041;28;20462;-70
2023/07/15 09:25:49;;;;;;;2.43;2.23;;;29.80;93.70;;;;;;4989350;28;20530;-70
2023/07/15 09:28:16;;;;;;;5.63;2.80;;;29.90;93.90;;;;;;4989335;28;20477;-70
2023/07/15 09:30:43;;;;;;;2.40;2.20;;;30.10;93.50;;;;;;4989468;28;20887;-70
2023/07/15 09:33:28;;;;;;;2.27;2.07;;;30.10;94.30;;;;;;4989505;28;20458;-70
2023/07/15 09:35:55;;;;;;;2.90;2.10;;;30.20;92.00;;;;;;4989105;28;20528;-69
2023/07/15 09:38:23;;;;;;;2.30;2.10;;;30.30;93.40;;;;;;4989029;28;20922;-70
2023/07/15 09:40:50;;;;;;;3.07;2.60;;;30.40;93.30;;;;;;4989513;28;20498;-69
2023/07/15 09:43:17;;;;;;;2.37;2.07;;;30.60;92.00;;;;;;5009237;28;20500;-69
2023/07/15 09:45:45;;;;;;;2.40;2.20;;;30.80;91.90;;;;;;5007792;28;20513;-69
2023/07/15 09:48:13;;;;;;;2.90;2.60;;;30.90;91.50;;;;;;5008848;28;20554;-69
2023/07/15 09:50:41;;;;;;;2.50;2.30;;;31.00;91.70;;;;;;5004927;28;20462;-69
2023/07/15 09:53:09;;;;;;;2.87;2.60;;;31.10;93.40;;;;;;4989577;28;20471;-70
2023/07/15 09:55:38;;;;;;;2.40;2.20;;;31.10;92.40;;;;;;4987949;28;20482;-69
2023/07/15 09:58:16;;;;;;;2.50;2.30;;;31.10;92.70;;;;;;4988458;28;20497;-69
2023/07/15 10:00:46;;;;;;;2.53;2.33;;;31.10;91.60;;;;;;4988024;28;20470;-70
2023/07/15 10:03:22;;;;;;;3.10;2.17;;;31.20;92.10;;;;;;4989409;28;20565;-70
2023/07/15 10:05:50;;;;;;;3.13;2.80;;;31.40;91.60;;;;;;4989163;28;20946;-70
2023/07/15 10:08:17;;;;;;;2.40;2.20;;;31.30;90.50;;;;;;4989169;28;20483;-69
2023/07/15 10:10:46;;;;;;;2.37;2.00;;;31.30;90.80;;;;;;4988916;28;20473;-69
2023/07/15 10:13:14;;;;;;;2.57;2.30;;;31.30;90.70;;;;;;4989772;28;20990;-70
2023/07/15 10:15:42;;;;;;;2.60;2.27;;;31.30;91.10;;;;;;4988590;28;20925;-69
2023/07/15 10:18:12;;;;;;;2.90;2.60;;;31.40;91.40;;;;;;4987940;28;21009;-69
2023/07/15 10:20:43;;;;;;;2.33;2.13;;;31.50;91.10;;;;;;4989233;28;20653;-69
2023/07/15 10:23:11;;;;;;;2.03;1.90;;;31.70;91.40;;;;;;4989277;28;20993;-69
2023/07/15 10:25:41;;;;;;;2.40;2.20;;;31.80;92.80;;;;;;4989089;28;20466;-70
2023/07/15 10:28:13;;;;;;;2.97;2.67;;;31.80;91.50;;;;;;4992590;28;20486;-70
2023/07/15 10:30:40;;;;;;;2.43;2.23;;;31.80;92.00;;;;;;4992870;28;20491;-70
2023/07/15 10:33:10;;;;;;;2.40;2.20;;;31.80;91.60;;;;;;4993317;28;20470;-70
2023/07/15 10:35:48;;;;;;;2.50;2.30;;;31.70;93.10;;;;;;4991029;28;21008;-70
2023/07/15 10:38:21;;;;;;;2.50;2.30;;;31.50;90.30;;;;;;4991276;28;20485;-70
2023/07/15 10:40:52;;;;;;;2.80;2.53;;;31.40;90.30;;;;;;4992121;28;20930;-70
2023/07/15 10:43:21;;;;;;;3.40;2.40;;;31.50;90.90;;;;;;4991769;28;20470;-69
2023/07/15 10:45:52;;;;;;;2.60;2.40;;;31.60;92.80;;;;;;4991922;28;20470;-70
2023/07/15 10:48:19;;;;;;;2.53;2.33;;;31.80;88.20;;;;;;4991693;28;20528;-70
2023/07/15 10:50:48;;;;;;;2.10;2.00;;;32.00;90.00;;;;;;4992006;28;20466;-70
2023/07/15 10:53:23;;;;;;;2.70;2.50;;;32.00;90.80;;;;;;4992602;28;20918;-70
2023/07/15 10:56:00;;;;;;;2.40;2.20;;;32.00;91.50;;;;;;4991109;28;20525;-70
2023/07/15 10:58:29;;;;;;;2.33;2.10;;;32.00;92.20;;;;;;4992769;28;20482;-71
2023/07/15 11:01:00;;;;;;;2.40;2.20;;;32.00;91.10;;;;;;4993250;28;20954;-70
2023/07/15 11:03:27;;;;;;;2.80;2.40;;;31.90;92.10;;;;;;4991490;28;20462;-71
2023/07/15 11:05:57;;;;;;;2.40;2.20;;;31.80;89.00;;;;;;4991962;28;20475;-70
2023/07/15 11:08:24;;;;;;;2.30;2.00;;;31.70;88.20;;;;;;4989429;28;20888;-71
2023/07/15 11:10:56;;;;;;;2.50;2.30;;;31.80;90.60;;;;;;4992028;28;20973;-69
2023/07/15 11:13:23;;;;;;;2.87;2.20;;;32.00;93.00;;;;;;4992022;28;20481;-69
2023/07/15 11:15:51;;;;;;;2.37;2.17;;;32.20;91.80;;;;;;4991791;28;21017;-71
2023/07/15 11:18:20;;;;;;;2.20;2.07;;;32.40;90.00;;;;;;4992252;28;20489;-70
2023/07/15 11:20:48;;;;;;;2.23;2.03;;;32.40;88.50;;;;;;4991994;28;20466;-70
2023/07/15 11:23:15;;;;;;;1.90;1.80;;;32.40;90.10;;;;;;4992820;28;20462;-69
2023/07/15 11:25:42;;;;;;;2.33;2.13;;;32.50;89.80;;;;;;4991394;28;20462;-70
2023/07/15 11:28:10;;;;;;;2.10;1.90;;;32.50;89.60;;;;;;4992491;28;20497;-70
2023/07/15 11:30:38;;;;;;;2.70;2.50;;;32.40;88.10;;;;;;4992274;28;20465;-70
2023/07/15 11:33:07;;;;;;;2.40;2.20;;;32.30;84.00;;;;;;4991550;28;20548;-70
2023/07/15 11:35:35;;;;;;;2.40;1.93;;;32.30;87.00;;;;;;4991067;28;20490;-69
2023/07/15 11:38:08;;;;;;;1.83;1.73;;;32.20;87.70;;;;;;4991092;28;20489;-69
2023/07/15 11:40:36;;;;;;;3.60;2.20;;;32.10;88.10;;;;;;4991521;28;20826;-70
2023/07/15 11:43:06;;;;;;;2.33;2.13;;;32.20;93.50;;;;;;4992532;28;20513;-70
2023/07/15 11:45:33;;;;;;;1.90;1.80;;;32.30;92.50;;;;;;4990543;28;20458;-70
2023/07/15 11:47:59;;;;;;;1.93;1.77;;;32.60;90.70;;;;;;4997146;28;20979;-70
2023/07/15 11:50:28;;;;;;;2.40;2.20;;;32.70;90.40;;;;;;5011232;28;20462;-69
2023/07/15 11:52:58;;;;;;;2.00;1.90;;;32.80;90.10;;;;;;5011709;28;20457;-69
2023/07/15 11:55:25;;;;;;;3.13;2.17;;;32.90;90.20;;;;;;5001669;28;20486;-70
2023/07/15 11:57:52;;;;;;;2.43;2.23;;;32.80;84.60;;;;;;4991620;28;20497;-70
2023/07/15 12:00:26;;;;;;;2.00;1.90;;;32.70;82.90;;;;;;4999645;28;20465;-70
2023/07/15 12:02:53;;;;;;;2.10;2.00;;;32.60;85.00;;;;;;5011340;28;20484;-70
2023/07/15 12:05:20;;;;;;;2.17;1.97;;;32.40;90.00;;;;;;5002901;28;20565;-70
2023/07/15 12:07:53;;;;;;;2.20;2.00;;;32.30;87.70;;;;;;4991191;28;20490;-70
2023/07/15 12:10:20;;;;;;;2.13;1.93;;;32.20;85.60;;;;;;4990554;28;20470;-70
2023/07/15 12:12:47;;;;;;;2.87;2.07;;;32.10;88.40;;;;;;4998735;28;20472;-69
2023/07/15 12:15:16;;;;;;;1.73;1.63;;;32.00;89.60;;;;;;4990565;28;21059;-68
2023/07/15 12:17:44;;;;;;;2.43;1.83;;;31.90;90.50;;;;;;4993498;28;21001;-70
2023/07/15 12:20:12;;;;;;;2.33;2.13;;;31.80;87.70;;;;;;4991707;28;20489;-70
2023/07/15 12:22:40;;;;;;;2.17;1.97;;;31.70;88.10;;;;;;5009175;28;20508;-70
2023/07/15 12:25:09;;;;;;;2.40;2.20;;;31.80;93.60;;;;;;5004327;28;20489;-70
2023/07/15 12:27:36;;;;;;;3.93;2.40;;;32.00;92.60;;;;;;4992282;28;20486;-70
2023/07/15 12:30:03;;;;;;;2.70;2.50;;;32.20;92.70;;;;;;5008081;28;20477;-69
2023/07/15 12:32:30;;;;;;;2.57;2.37;;;32.40;95.10;;;;;;4993996;28;20465;-69
2023/07/15 12:34:57;;;;;;;2.57;2.37;;;32.60;92.70;;;;;;4984711;28;20487;-70
2023/07/15 12:37:23;;;;;;;3.33;3.03;;;32.70;94.50;;;;;;4990591;28;20486;-70
2023/07/15 12:39:50;;;;;;;2.60;2.40;;;32.90;94.90;;;;;;4989567;28;20477;-70
2023/07/15 12:42:18;;;;;;;2.90;2.60;;;33.00;93.50;;;;;;4990845;28;20473;-70
2023/07/15 12:44:45;;;;;;;3.33;2.93;;;33.20;92.10;;;;;;4989093;28;20865;-70
2023/07/15 12:47:11;;;;;;;2.50;2.30;;;33.30;92.40;;;;;;4989887;28;20489;-69
2023/07/15 12:49:38;;;;;;;2.93;2.60;;;33.40;94.40;;;;;;4989465;28;20966;-70
2023/07/15 12:52:05;;;;;;;2.63;2.33;;;33.60;91.00;;;;;;4990500;28;20458;-70
2023/07/15 12:54:32;;;;;;;4.07;2.60;;;33.60;92.20;;;;;;5001983;28;20815;-70
2023/07/15 12:56:59;;;;;;;2.50;2.30;;;33.80;93.50;;;;;;4989397;28;20486;-70